createdAt,value
2024-04-19T00:00:06.991Z,0.80
2024-04-19T00:02:43.033Z,0.90
2024-04-19T00:05:13.747Z,1.00
2024-04-19T00:07:44.204Z,1.00
2024-04-19T00:10:14.798Z,1.90
2024-04-19T00:12:45.247Z,1.20
2024-04-19T00:15:16.046Z,2.40
2024-04-19T00:17:46.827Z,2.00
2024-04-19T00:20:37.312Z,1.40
2024-04-19T00:23:13.974Z,1.20
2024-04-19T00:25:44.208Z,2.70
2024-04-19T00:28:15.447Z,1.20
2024-04-19T00:30:45.950Z,1.90
2024-04-19T00:33:16.610Z,1.90
2024-04-19T00:35:48.320Z,1.50
2024-04-19T00:38:18.856Z,2.00
2024-04-19T00:40:49.192Z,1.40
2024-04-19T00:43:20.961Z,1.00
2024-04-19T00:45:52.419Z,1.20
2024-04-19T00:48:24.444Z,2.20
2024-04-19T00:50:59.951Z,1.80
2024-04-19T00:53:33.808Z,1.50
2024-04-19T00:56:23.511Z,2.30
2024-04-19T00:58:54.377Z,1.30
2024-04-19T01:01:25.308Z,1.90
2024-04-19T01:03:57.671Z,1.10
2024-04-19T01:06:28.168Z,3.20
2024-04-19T01:08:58.779Z,2.10
2024-04-19T01:11:35.447Z,2.00
2024-04-19T01:14:06.720Z,1.90
2024-04-19T01:16:37.653Z,1.30
2024-04-19T01:19:09.924Z,1.30
2024-04-19T01:21:41.583Z,2.20
2024-04-19T01:24:22.770Z,1.00
2024-04-19T01:26:53.345Z,0.90
2024-04-19T01:29:23.895Z,1.10
2024-04-19T01:31:54.316Z,1.60
2024-04-19T01:34:25.139Z,1.60
2024-04-19T01:36:55.885Z,0.90
2024-04-19T01:39:27.003Z,1.70
2024-04-19T01:41:59.358Z,0.80
2024-04-19T01:44:30.143Z,0.90
2024-04-19T01:47:00.654Z,1.50
2024-04-19T01:49:31.094Z,0.80
2024-04-19T01:52:01.562Z,0.80
2024-04-19T01:54:32.181Z,2.00
2024-04-19T01:57:03.217Z,1.50
2024-04-19T01:59:33.487Z,2.40
2024-04-19T02:02:04.341Z,1.60
2024-04-19T02:04:35.439Z,1.10
2024-04-19T02:07:06.349Z,1.30
2024-04-19T02:09:37.918Z,1.00
2024-04-19T02:12:09.296Z,1.20
2024-04-19T02:14:40.107Z,1.10
2024-04-19T02:17:10.796Z,1.40
2024-04-19T02:19:41.787Z,1.40
2024-04-19T02:22:12.357Z,1.40
2024-04-19T02:24:42.915Z,1.30
2024-04-19T02:27:39.860Z,1.70
2024-04-19T02:30:25.907Z,1.10
2024-04-19T02:32:56.866Z,1.20
2024-04-19T02:35:27.446Z,1.00
2024-04-19T02:37:58.359Z,0.80
2024-04-19T02:40:28.637Z,1.00
2024-04-19T02:42:59.907Z,0.90
2024-04-19T02:45:30.673Z,0.90
2024-04-19T02:48:01.091Z,0.70
2024-04-19T02:50:31.620Z,1.80
2024-04-19T02:53:18.218Z,1.10
2024-04-19T02:55:50.012Z,2.00
2024-04-19T02:58:20.861Z,1.30
2024-04-19T03:00:51.166Z,1.70
2024-04-19T03:03:21.710Z,0.70
2024-04-19T03:05:55.131Z,1.10
2024-04-19T03:08:27.548Z,0.80
2024-04-19T03:10:57.750Z,1.10
2024-04-19T03:13:28.190Z,1.00
2024-04-19T03:16:08.411Z,0.90
2024-04-19T03:18:45.357Z,1.20
2024-04-19T03:21:17.232Z,1.30
2024-04-19T03:23:48.017Z,1.80
2024-04-19T03:26:18.432Z,0.90
2024-04-19T03:28:50.872Z,1.60
2024-04-19T03:31:21.113Z,1.60
2024-04-19T03:33:51.687Z,0.80
2024-04-19T03:36:22.193Z,1.40
2024-04-19T03:38:52.949Z,0.70
2024-04-19T03:41:23.690Z,1.50
2024-04-19T03:44:08.210Z,0.70
2024-04-19T03:46:38.810Z,1.30
2024-04-19T03:49:09.462Z,2.00
2024-04-19T03:51:39.953Z,1.90
2024-04-19T03:54:10.529Z,0.90
2024-04-19T03:56:40.969Z,0.80
2024-04-19T03:59:12.491Z,1.10
2024-04-19T04:01:42.995Z,1.30
2024-04-19T04:04:13.470Z,1.70
2024-04-19T04:06:44.330Z,1.40
2024-04-19T04:09:14.761Z,1.30
2024-04-19T04:11:45.455Z,0.90
2024-04-19T04:14:15.689Z,0.70
2024-04-19T04:16:47.689Z,0.70
2024-04-19T04:19:20.498Z,0.80
2024-04-19T04:21:51.351Z,0.60
2024-04-19T04:24:21.926Z,1.40
2024-04-19T04:26:52.625Z,1.80
2024-04-19T04:29:28.343Z,1.60
2024-04-19T04:31:58.981Z,1.20
2024-04-19T04:34:29.504Z,1.80
2024-04-19T04:37:00.099Z,1.40
2024-04-19T04:39:30.623Z,1.00
2024-04-19T04:42:01.184Z,1.00
2024-04-19T04:44:34.255Z,3.40
2024-04-19T04:47:06.888Z,2.30
2024-04-19T04:49:37.526Z,1.60
2024-04-19T04:52:09.013Z,1.50
2024-04-19T04:54:39.847Z,1.50
2024-04-19T04:57:10.522Z,3.20
2024-04-19T04:59:40.867Z,2.30
2024-04-19T05:02:12.853Z,2.70
2024-04-19T05:04:45.576Z,1.40
2024-04-19T05:07:15.870Z,1.90
2024-04-19T05:09:46.467Z,3.90
2024-04-19T05:12:17.037Z,1.10
2024-04-19T05:14:47.303Z,0.70
2024-04-19T05:17:17.855Z,1.00
2024-04-19T05:19:48.474Z,2.80
2024-04-19T05:22:19.017Z,0.80
2024-04-19T05:24:50.346Z,1.40
2024-04-19T05:27:20.989Z,1.60
2024-04-19T05:29:53.701Z,1.20
2024-04-19T05:32:24.377Z,1.80
2024-04-19T05:34:55.317Z,3.60
2024-04-19T05:37:25.781Z,2.70
2024-04-19T05:39:56.472Z,21.00
2024-04-19T05:42:27.724Z,5.30
2024-04-19T05:44:58.773Z,3.90
2024-04-19T05:47:29.733Z,2.20
2024-04-19T05:50:00.283Z,2.90
2024-04-19T05:52:32.348Z,3.20
2024-04-19T05:55:03.378Z,4.30
2024-04-19T05:57:34.203Z,4.10
2024-04-19T06:00:06.359Z,4.40
2024-04-19T06:02:42.490Z,3.90
2024-04-19T06:05:13.043Z,3.10
2024-04-19T06:07:47.624Z,3.90
2024-04-19T06:10:18.833Z,3.50
2024-04-19T06:12:49.333Z,2.80
2024-04-19T06:15:20.398Z,2.80
2024-04-19T06:17:51.107Z,5.00
2024-04-19T06:20:22.044Z,3.60
2024-04-19T06:22:52.580Z,3.20
2024-04-19T06:25:23.142Z,3.00
2024-04-19T06:27:54.255Z,3.10
2024-04-19T06:30:28.149Z,2.40
2024-04-19T06:32:59.791Z,3.20
2024-04-19T06:35:30.641Z,2.00
2024-04-19T06:38:01.114Z,1.90
2024-04-19T06:40:32.160Z,2.90
2024-04-19T06:43:02.720Z,1.70
2024-04-19T06:45:38.136Z,1.10
2024-04-19T06:48:10.682Z,2.90
2024-04-19T06:50:41.636Z,2.80
2024-04-19T06:53:12.122Z,3.30
2024-04-19T06:55:43.387Z,2.20
2024-04-19T06:58:13.910Z,2.80
2024-04-19T07:00:59.508Z,2.00
2024-04-19T07:03:35.891Z,3.20
2024-04-19T07:06:19.955Z,2.40
2024-04-19T07:08:57.750Z,2.00
2024-04-19T07:11:28.671Z,2.90
2024-04-19T07:13:59.457Z,3.40
2024-04-19T07:16:29.861Z,5.70
2024-04-19T07:19:00.604Z,7.60
2024-04-19T07:21:30.964Z,5.20
2024-04-19T07:24:01.340Z,5.40
2024-04-19T07:26:35.663Z,3.30
2024-04-19T07:29:06.250Z,2.30
2024-04-19T07:31:36.812Z,1.30
2024-04-19T07:34:07.286Z,2.60
2024-04-19T07:36:37.914Z,3.50
2024-04-19T07:39:08.765Z,1.50
2024-04-19T07:41:39.383Z,1.50
2024-04-19T07:44:10.075Z,2.70
2024-04-19T07:46:41.075Z,1.30
2024-04-19T07:49:11.662Z,1.50
2024-04-19T07:51:42.448Z,0.90
2024-04-19T07:54:12.973Z,0.90
2024-04-19T07:56:45.123Z,1.70
2024-04-19T07:59:15.655Z,2.60
2024-04-19T08:01:46.285Z,1.70
2024-04-19T08:04:16.906Z,1.80
2024-04-19T08:06:47.795Z,3.40
2024-04-19T08:09:19.553Z,2.10
2024-04-19T08:11:50.993Z,2.60
2024-04-19T08:14:21.700Z,3.60
2024-04-19T08:16:52.448Z,1.90
2024-04-19T08:19:23.098Z,2.60
2024-04-19T08:21:53.771Z,3.50
2024-04-19T08:24:25.669Z,1.60
2024-04-19T08:26:56.946Z,2.10
2024-04-19T08:29:35.039Z,2.50
2024-04-19T08:32:08.286Z,1.60
2024-04-19T08:34:38.712Z,0.80
2024-04-19T08:37:09.483Z,1.70
2024-04-19T08:39:41.426Z,1.10
2024-04-19T08:42:17.345Z,0.90
2024-04-19T08:44:51.074Z,0.70
2024-04-19T08:47:22.671Z,2.50
2024-04-19T08:49:54.425Z,1.90
2024-04-19T08:52:49.222Z,2.60
2024-04-19T08:55:16.523Z,1.60
2024-04-19T08:57:48.608Z,1.50
2024-04-19T09:00:21.085Z,1.10
2024-04-19T09:02:53.230Z,2.10
2024-04-19T09:05:23.691Z,1.70
2024-04-19T09:07:54.225Z,0.90
2024-04-19T09:10:24.702Z,1.20
2024-04-19T09:12:55.553Z,1.00
2024-04-19T09:15:28.403Z,1.20
2024-04-19T09:18:00.371Z,1.90
2024-04-19T09:20:31.126Z,0.90
2024-04-19T09:23:02.426Z,1.10
2024-04-19T09:25:32.738Z,0.50
2024-04-19T09:28:03.297Z,0.90
2024-04-19T09:30:34.712Z,1.50
2024-04-19T09:33:05.818Z,1.40
2024-04-19T09:35:37.009Z,2.60
2024-04-19T09:38:09.861Z,1.40
2024-04-19T09:40:41.251Z,0.90
2024-04-19T09:43:16.229Z,1.50
2024-04-19T09:45:48.715Z,3.30
2024-04-19T09:48:20.407Z,2.10
2024-04-19T09:50:53.098Z,1.20
2024-04-19T09:53:30.254Z,0.80
2024-04-19T09:56:12.580Z,2.30
2024-04-19T09:58:45.259Z,0.70
2024-04-19T10:01:17.013Z,1.00
2024-04-19T10:03:49.804Z,1.70
2024-04-19T10:06:22.704Z,1.20
2024-04-19T10:08:54.793Z,0.90
2024-04-19T10:11:25.802Z,1.20
2024-04-19T10:13:56.358Z,0.60
2024-04-19T10:16:27.555Z,1.50
2024-04-19T10:18:58.399Z,2.30
2024-04-19T10:21:29.313Z,1.90
2024-04-19T10:24:00.182Z,0.60
2024-04-19T10:26:30.679Z,1.10
2024-04-19T10:29:02.900Z,3.10
2024-04-19T10:31:35.852Z,2.80
2024-04-19T10:34:08.620Z,1.20
2024-04-19T10:36:39.615Z,3.10
2024-04-19T10:39:12.294Z,1.00
2024-04-19T10:41:50.655Z,1.10
2024-04-19T10:44:21.682Z,2.60
2024-04-19T10:46:52.484Z,2.60
2024-04-19T10:49:24.118Z,2.60
2024-04-19T10:51:55.474Z,2.30
2024-04-19T10:54:26.786Z,1.70
2024-04-19T10:56:59.660Z,1.40
2024-04-19T10:59:30.239Z,3.30
2024-04-19T11:02:03.005Z,2.80
2024-04-19T11:04:34.398Z,1.40
2024-04-19T11:07:06.116Z,2.70
2024-04-19T11:09:37.458Z,2.10
2024-04-19T11:12:09.415Z,3.20
2024-04-19T11:14:40.063Z,3.10
2024-04-19T11:17:10.526Z,2.60
2024-04-19T11:19:40.915Z,2.10
2024-04-19T11:22:12.081Z,2.30
2024-04-19T11:24:42.863Z,4.30
2024-04-19T11:27:13.827Z,2.70
2024-04-19T11:29:44.802Z,2.90
2024-04-19T11:32:15.216Z,3.40
2024-04-19T11:34:48.809Z,2.60
2024-04-19T11:37:19.687Z,4.40
2024-04-19T11:39:50.378Z,2.20
2024-04-19T11:42:23.129Z,3.70
2024-04-19T11:44:53.949Z,4.20
2024-04-19T11:47:24.833Z,4.70
2024-04-19T11:49:55.516Z,4.30
2024-04-19T11:52:26.057Z,5.80
2024-04-19T11:54:56.612Z,4.30
2024-04-19T11:57:27.225Z,5.00
2024-04-19T11:59:57.697Z,4.50
2024-04-19T12:02:28.141Z,4.90
2024-04-19T12:04:58.834Z,5.10
2024-04-19T12:07:30.027Z,6.00
2024-04-19T12:10:00.919Z,2.30
2024-04-19T12:17:39.515Z,3.00
2024-04-19T12:20:19.424Z,4.50
2024-04-19T12:23:01.059Z,7.40
2024-04-19T12:25:36.588Z,5.50
2024-04-19T12:28:08.588Z,3.10
2024-04-19T12:30:39.860Z,5.40
2024-04-19T12:33:11.244Z,3.80
2024-04-19T12:35:45.544Z,5.90
2024-04-19T12:38:16.412Z,4.60
2024-04-19T12:40:46.983Z,5.00
2024-04-19T12:43:17.519Z,7.60
2024-04-19T12:45:50.712Z,7.30
2024-04-19T12:48:22.513Z,7.10
2024-04-19T12:50:53.387Z,8.70
2024-04-19T12:53:24.681Z,7.90
2024-04-19T12:55:55.647Z,6.10
2024-04-19T12:58:26.428Z,6.50
2024-04-19T13:01:02.330Z,9.20
2024-04-19T13:03:33.313Z,6.20
2024-04-19T13:06:04.231Z,5.60
2024-04-19T13:08:34.753Z,4.80
2024-04-19T13:11:06.355Z,7.00
2024-04-19T13:13:51.462Z,5.50
2024-04-19T13:16:22.075Z,4.80
2024-04-19T13:18:52.653Z,6.00
2024-04-19T13:21:27.953Z,6.30
2024-04-19T13:23:58.592Z,7.00
2024-04-19T13:26:29.907Z,7.00
2024-04-19T13:29:01.082Z,5.30
2024-04-19T13:31:32.636Z,4.90
2024-04-19T13:34:03.767Z,8.70
2024-04-19T13:36:34.350Z,9.10
2024-04-19T13:39:05.468Z,6.00
2024-04-19T13:41:36.203Z,5.00
2024-04-19T13:44:08.867Z,5.90
2024-04-19T13:46:39.917Z,6.20
2024-04-19T13:49:14.886Z,4.90
2024-04-19T13:51:46.909Z,3.10
2024-04-19T13:54:17.475Z,9.00
2024-04-19T13:56:49.448Z,6.30
2024-04-19T13:59:22.025Z,8.20
2024-04-19T14:01:53.407Z,10.20
2024-04-19T14:04:24.236Z,8.20
2024-04-19T14:06:55.502Z,7.60
2024-04-19T14:09:26.373Z,6.70
2024-04-19T14:11:56.816Z,4.60
2024-04-19T14:14:27.674Z,7.00
2024-04-19T14:16:58.408Z,6.60
2024-04-19T14:19:29.057Z,6.60
2024-04-19T14:21:59.829Z,6.30
2024-04-19T14:24:30.583Z,5.90
2024-04-19T14:27:01.288Z,8.10
2024-04-19T14:29:31.638Z,4.60
2024-04-19T14:32:02.121Z,4.80
2024-04-19T14:34:32.723Z,4.20
2024-04-19T14:37:03.105Z,5.40
2024-04-19T14:39:33.704Z,5.40
2024-04-19T14:42:04.643Z,6.20
2024-04-19T14:44:34.926Z,5.90
2024-04-19T14:47:05.774Z,7.00
2024-04-19T14:49:36.578Z,4.80
2024-04-19T14:52:12.748Z,9.10
2024-04-19T14:54:47.006Z,5.90
2024-04-19T14:57:20.084Z,6.20
2024-04-19T14:59:50.619Z,7.20
2024-04-19T15:02:22.884Z,8.10
2024-04-19T15:04:53.422Z,5.90
2024-04-19T15:07:24.492Z,4.40
2024-04-19T15:09:55.219Z,8.10
2024-04-19T15:12:25.650Z,5.40
2024-04-19T15:14:56.353Z,5.10
2024-04-19T15:17:26.871Z,6.20
2024-04-19T15:19:57.380Z,6.90
2024-04-19T15:22:27.674Z,6.50
2024-04-19T15:24:58.366Z,6.00
2024-04-19T15:27:28.895Z,8.70
2024-04-19T15:29:59.452Z,5.90
2024-04-19T15:32:30.591Z,7.10
2024-04-19T15:35:01.510Z,5.10
2024-04-19T15:37:32.243Z,4.40
2024-04-19T15:40:03.366Z,7.00
2024-04-19T15:42:34.290Z,11.40
2024-04-19T15:45:05.586Z,4.80
2024-04-19T15:47:36.902Z,5.60
2024-04-19T15:50:08.551Z,5.00
2024-04-19T15:52:39.826Z,7.40
2024-04-19T15:55:10.463Z,6.50
2024-04-19T15:57:42.463Z,7.70
2024-04-19T16:00:16.395Z,7.20
2024-04-19T16:02:47.559Z,4.70
2024-04-19T16:05:18.385Z,4.80
2024-04-19T16:07:50.029Z,5.20
2024-04-19T16:10:20.555Z,6.70
2024-04-19T16:12:51.093Z,7.60
2024-04-19T16:15:24.250Z,6.90
2024-04-19T16:17:54.694Z,7.80
2024-04-19T16:20:25.632Z,6.00
2024-04-19T16:22:56.074Z,4.30
2024-04-19T16:25:26.869Z,4.10
2024-04-19T16:27:57.434Z,3.90
2024-04-19T16:30:28.236Z,5.90
2024-04-19T16:32:59.090Z,6.40
2024-04-19T16:35:30.205Z,4.70
2024-04-19T16:38:01.231Z,4.90
2024-04-19T16:40:31.771Z,6.60
2024-04-19T16:43:02.311Z,6.50
2024-04-19T16:45:33.621Z,3.40
2024-04-19T16:48:04.085Z,2.80
2024-04-19T16:50:34.688Z,3.50
2024-04-19T16:53:05.682Z,6.20
2024-04-19T16:55:36.579Z,2.70
2024-04-19T16:58:08.534Z,5.90
2024-04-19T17:00:40.410Z,4.30
2024-04-19T17:03:11.278Z,3.60
2024-04-19T17:05:42.184Z,4.60
2024-04-19T17:08:12.576Z,4.60
2024-04-19T17:10:43.152Z,5.50
2024-04-19T17:13:14.204Z,5.10
2024-04-19T17:15:45.116Z,7.30
2024-04-19T17:18:16.011Z,4.00
2024-04-19T17:20:46.677Z,4.90
2024-04-19T17:23:17.351Z,5.70
2024-04-19T17:25:48.808Z,5.30
2024-04-19T17:28:20.320Z,3.10
2024-04-19T17:30:52.503Z,4.60
2024-04-19T17:33:23.467Z,6.20
2024-04-19T17:35:54.340Z,3.70
2024-04-19T17:38:24.734Z,5.50
2024-04-19T17:40:55.182Z,5.40
2024-04-19T17:43:25.887Z,7.20
2024-04-19T17:45:56.405Z,4.40
2024-04-19T17:48:27.004Z,3.20
2024-04-19T17:50:58.806Z,4.20
2024-04-19T17:53:30.262Z,3.70
2024-04-19T17:56:01.127Z,6.80
2024-04-19T17:58:31.853Z,5.30
2024-04-19T18:01:04.601Z,6.10
2024-04-19T18:03:35.172Z,4.60
2024-04-19T18:06:06.455Z,6.00
2024-04-19T18:08:37.277Z,5.30
2024-04-19T18:11:07.958Z,5.10
2024-04-19T18:13:39.407Z,6.50
2024-04-19T18:16:11.482Z,6.10
2024-04-19T18:18:42.203Z,5.70
2024-04-19T18:21:13.324Z,4.70
2024-04-19T18:23:47.101Z,6.70
2024-04-19T18:26:17.760Z,6.30
2024-04-19T18:28:48.537Z,4.90
2024-04-19T18:31:19.067Z,8.10
2024-04-19T18:33:49.681Z,5.00
2024-04-19T18:36:20.061Z,6.60
2024-04-19T18:38:50.458Z,6.40
2024-04-19T18:41:24.998Z,5.20
2024-04-19T18:43:57.019Z,7.50
2024-04-19T18:46:29.743Z,4.50
2024-04-19T18:49:00.325Z,6.00
2024-04-19T18:51:31.177Z,6.30
2024-04-19T18:54:01.785Z,7.50
2024-04-19T18:56:32.155Z,5.30
2024-04-19T18:59:02.722Z,6.80
2024-04-19T19:01:33.169Z,7.00
2024-04-19T19:04:03.602Z,5.00
2024-04-19T19:06:34.506Z,5.90
2024-04-19T19:09:08.043Z,6.60
2024-04-19T19:11:38.379Z,6.60
2024-04-19T19:14:09.518Z,6.50
2024-04-19T19:16:40.624Z,6.50
2024-04-19T19:19:11.196Z,4.10
2024-04-19T19:21:41.749Z,4.30
2024-04-19T19:24:12.424Z,5.40
2024-04-19T19:26:42.998Z,6.60
2024-04-19T19:29:17.963Z,6.20
2024-04-19T19:31:48.385Z,4.60
2024-04-19T19:34:19.330Z,5.90
2024-04-19T19:36:51.086Z,6.90
2024-04-19T19:39:21.689Z,6.10
2024-04-19T19:41:52.176Z,5.00
2024-04-19T19:44:22.800Z,6.80
2024-04-19T19:46:53.654Z,5.80
2024-04-19T19:49:24.156Z,6.40
2024-04-19T19:51:54.514Z,4.30
2024-04-19T19:54:25.558Z,8.40
2024-04-19T19:56:55.918Z,5.90
2024-04-19T19:59:40.214Z,7.80
2024-04-19T20:02:25.107Z,6.70
2024-04-19T20:05:09.628Z,6.80
2024-04-19T20:07:41.003Z,3.50
2024-04-19T20:10:11.724Z,4.70
2024-04-19T20:12:42.300Z,4.50
2024-04-19T20:15:12.844Z,6.70
2024-04-19T20:17:43.640Z,5.00
2024-04-19T20:20:14.319Z,7.80
2024-04-19T20:22:44.583Z,9.00
2024-04-19T20:25:15.524Z,8.50
2024-04-19T20:27:46.006Z,10.10
2024-04-19T20:30:16.646Z,8.70
2024-04-19T20:32:47.128Z,8.90
2024-04-19T20:35:17.829Z,5.40
2024-04-19T20:37:48.345Z,7.90
2024-04-19T20:40:19.304Z,8.10
2024-04-19T20:42:53.724Z,10.60
2024-04-19T20:45:29.930Z,10.10
2024-04-19T20:48:00.602Z,9.20
2024-04-19T20:50:32.853Z,9.00
2024-04-19T20:53:04.733Z,6.10
2024-04-19T20:55:40.858Z,7.30
2024-04-19T20:58:11.582Z,7.20
2024-04-19T21:00:42.117Z,7.50
2024-04-19T21:03:12.743Z,7.50
2024-04-19T21:05:43.078Z,7.80
2024-04-19T21:08:13.767Z,6.70
2024-04-19T21:10:44.886Z,7.80
2024-04-19T21:13:18.242Z,8.80
2024-04-19T21:16:09.150Z,6.10
2024-04-19T21:18:46.382Z,7.30
2024-04-19T21:21:17.043Z,5.80
2024-04-19T21:23:48.424Z,7.50
2024-04-19T21:26:19.128Z,8.30
2024-04-19T21:28:50.949Z,8.00
2024-04-19T21:31:21.312Z,8.60
2024-04-19T21:33:51.761Z,6.00
2024-04-19T21:36:22.525Z,7.50
2024-04-19T21:38:53.220Z,6.40
2024-04-19T21:41:23.623Z,8.90
2024-04-19T21:43:54.262Z,9.20
2024-04-19T21:46:24.744Z,7.60
2024-04-19T21:48:55.348Z,8.20
2024-04-19T21:51:26.874Z,6.00
2024-04-19T21:53:57.324Z,4.50
2024-04-19T21:56:28.294Z,8.20
2024-04-19T21:59:00.502Z,7.30
2024-04-19T22:01:31.473Z,6.80
2024-04-19T22:04:02.011Z,7.80
2024-04-19T22:06:32.692Z,8.20
2024-04-19T22:09:03.695Z,7.10
2024-04-19T22:11:34.326Z,11.50
2024-04-19T22:14:04.760Z,8.30
2024-04-19T22:16:35.258Z,8.20
2024-04-19T22:19:05.809Z,8.90
2024-04-19T22:21:36.954Z,7.50
2024-04-19T22:24:08.809Z,9.60
2024-04-19T22:26:42.628Z,7.80
2024-04-19T22:29:13.681Z,6.70
2024-04-19T22:31:44.206Z,10.30
2024-04-19T22:34:14.907Z,9.40
2024-04-19T22:36:46.266Z,6.40
2024-04-19T22:39:17.909Z,9.40
2024-04-19T22:41:48.814Z,8.70
2024-04-19T22:44:19.461Z,9.40
2024-04-19T22:46:51.225Z,9.10
2024-04-19T22:49:21.985Z,9.00
2024-04-19T22:51:54.363Z,9.70
2024-04-19T22:54:24.972Z,9.40
2024-04-19T22:56:55.813Z,9.40
2024-04-19T22:59:26.472Z,7.70
2024-04-19T23:01:57.365Z,11.20
2024-04-19T23:04:28.156Z,9.40
2024-04-19T23:06:59.049Z,9.90
2024-04-19T23:09:30.262Z,6.50
2024-04-19T23:12:00.748Z,11.10
2024-04-19T23:14:30.998Z,10.00
2024-04-19T23:17:01.416Z,10.10
2024-04-19T23:19:32.021Z,10.70
2024-04-19T23:22:02.504Z,8.10
2024-04-19T23:24:34.668Z,11.30
2024-04-19T23:27:05.378Z,9.50
2024-04-19T23:29:35.982Z,5.40
2024-04-19T23:32:07.241Z,8.40
2024-04-19T23:34:37.854Z,7.30
2024-04-19T23:37:08.769Z,8.80
2024-04-19T23:39:39.076Z,9.70
2024-04-19T23:42:12.620Z,8.80
2024-04-19T23:44:43.759Z,6.70
2024-04-19T23:47:14.374Z,7.50
2024-04-19T23:49:44.701Z,9.60
2024-04-19T23:52:15.349Z,8.20
2024-04-19T23:54:46.827Z,9.70
2024-04-19T23:57:17.755Z,8.00
2024-04-19T23:59:48.236Z,10.00
